Terminal Aerodrome Forecast
Issued by NWS

Home | Current Version | Previous Version | Text Only | Print | Product List | Glossary On
Versions: 1 2 3 4 5 6 7 8 9 10 11 12 13 14 15 16 17 18
393
FTUS45 KABQ 010409 AAC
TAFAEG
TAF AMD
KAEG 010409Z 0104/0124 02008KT P6SM BKN050 BKN080
     FM010530 15012G20KT P6SM OVC030
     FM010700 12022G32KT P6SM VCSH BKN035 OVC050
     FM011200 12025G35KT P6SM VCSH SCT025 OVC035
     FM011600 11020G32KT P6SM VCSH BKN025
     FM011900 13015G25KT P6SM VCSH BKN040 BKN070=

USA.gov is the U.S. government's official web portal to all federal, state and local government web resources and services.